createdAt,value
2019-05-25T00:01:51.973Z,15.67
2019-05-25T00:04:20.869Z,16.60
2019-05-25T00:06:49.697Z,12.70
2019-05-25T00:09:18.585Z,13.10
2019-05-25T00:11:47.406Z,11.97
2019-05-25T00:14:16.286Z,14.40
2019-05-25T00:16:45.088Z,12.97
2019-05-25T00:19:13.900Z,14.10
2019-05-25T00:21:42.748Z,11.00
2019-05-25T00:24:12.814Z,12.33
2019-05-25T00:26:41.931Z,11.90
2019-05-25T00:29:10.751Z,12.63
2019-05-25T00:31:39.562Z,13.27
2019-05-25T00:34:08.372Z,12.30
2019-05-25T00:36:37.254Z,12.40
2019-05-25T00:39:07.134Z,11.63
2019-05-25T00:41:35.928Z,11.60
2019-05-25T00:44:04.952Z,11.63
2019-05-25T00:46:33.921Z,10.90
2019-05-25T00:49:02.770Z,9.30
2019-05-25T00:51:31.560Z,8.17
2019-05-25T00:54:00.449Z,9.03
2019-05-25T00:56:29.244Z,8.37
2019-05-25T00:58:58.045Z,8.67
2019-05-25T01:01:26.844Z,8.60
2019-05-25T01:03:55.669Z,9.67
2019-05-25T01:06:25.476Z,12.63
2019-05-25T01:08:54.348Z,12.37
2019-05-25T01:11:23.144Z,11.20
2019-05-25T01:13:51.955Z,8.80
2019-05-25T01:16:20.808Z,8.90
2019-05-25T01:18:49.666Z,8.87
2019-05-25T01:21:18.664Z,7.40
2019-05-25T01:23:47.483Z,8.17
2019-05-25T01:26:16.279Z,8.10
2019-05-25T01:28:45.103Z,8.80
2019-05-25T01:31:13.905Z,7.27
2019-05-25T01:33:42.775Z,7.13
2019-05-25T01:36:11.644Z,7.60
2019-05-25T01:38:40.444Z,8.37
2019-05-25T01:41:09.303Z,7.50
2019-05-25T01:43:38.172Z,6.53
2019-05-25T01:46:07.073Z,7.00
2019-05-25T01:48:35.943Z,7.60
2019-05-25T01:51:04.844Z,6.97
2019-05-25T01:53:33.632Z,7.97
2019-05-25T01:56:02.446Z,9.20
2019-05-25T01:58:31.226Z,8.53
2019-05-25T02:01:00.030Z,7.00
2019-05-25T02:03:28.830Z,6.60
2019-05-25T02:05:57.692Z,6.80
2019-05-25T02:08:26.636Z,6.30
2019-05-25T02:10:55.509Z,6.10
2019-05-25T02:13:24.348Z,6.30
2019-05-25T02:15:53.184Z,7.03
2019-05-25T02:18:22.018Z,7.27
2019-05-25T02:20:50.836Z,7.10
2019-05-25T02:23:19.693Z,7.20
2019-05-25T02:25:48.504Z,7.50
2019-05-25T02:28:17.283Z,7.80
2019-05-25T02:30:46.170Z,5.97
2019-05-25T02:33:14.955Z,5.90
2019-05-25T02:35:43.755Z,6.30
2019-05-25T02:38:12.561Z,6.37
2019-05-25T02:40:41.427Z,6.60
2019-05-25T02:43:10.368Z,8.87
2019-05-25T02:45:39.248Z,6.00
2019-05-25T02:48:08.073Z,6.47
2019-05-25T02:50:36.964Z,7.47
2019-05-25T02:53:05.834Z,8.40
2019-05-25T02:55:35.347Z,5.87
2019-05-25T02:58:04.397Z,7.57
2019-05-25T03:00:33.886Z,7.53
2019-05-25T03:03:03.361Z,6.60
2019-05-25T03:05:32.324Z,6.50
2019-05-25T03:08:01.961Z,7.13
2019-05-25T03:10:31.493Z,6.30
2019-05-25T03:13:02.488Z,6.77
2019-05-25T03:15:31.511Z,6.60
2019-05-25T03:18:00.495Z,9.50
2019-05-25T03:20:29.386Z,7.70
2019-05-25T03:22:58.248Z,7.73
2019-05-25T03:25:27.126Z,7.77
2019-05-25T03:27:56.000Z,6.90
2019-05-25T03:30:33.286Z,6.30
2019-05-25T03:33:02.340Z,9.17
2019-05-25T03:35:31.403Z,9.40
2019-05-25T03:38:00.272Z,8.70
2019-05-25T03:40:29.213Z,6.87
2019-05-25T03:42:58.007Z,8.20
2019-05-25T03:45:26.972Z,8.00
2019-05-25T03:47:55.813Z,8.33
2019-05-25T03:50:24.709Z,6.83
2019-05-25T03:52:53.571Z,8.17
2019-05-25T03:55:22.482Z,7.90
2019-05-25T03:57:51.352Z,8.23
2019-05-25T04:00:30.867Z,6.40
2019-05-25T04:02:59.721Z,8.20
2019-05-25T04:05:28.606Z,7.07
2019-05-25T04:07:57.491Z,8.33
2019-05-25T04:10:26.467Z,8.13
2019-05-25T04:12:55.321Z,8.00
2019-05-25T04:15:24.328Z,6.87
2019-05-25T04:17:53.141Z,8.10
2019-05-25T04:20:22.202Z,6.93
2019-05-25T04:22:51.081Z,7.60
2019-05-25T04:25:19.879Z,7.30
2019-05-25T04:27:48.756Z,7.93
2019-05-25T04:30:18.696Z,7.90
2019-05-25T04:32:47.515Z,7.50
2019-05-25T04:35:16.601Z,8.07
2019-05-25T04:37:45.405Z,8.30
2019-05-25T04:40:14.362Z,7.60
2019-05-25T04:42:43.173Z,9.57
2019-05-25T04:45:12.521Z,13.33
2019-05-25T04:47:41.369Z,14.50
2019-05-25T04:50:10.688Z,15.03
2019-05-25T04:52:41.487Z,16.03
2019-05-25T04:55:10.366Z,18.33
2019-05-25T04:57:39.195Z,17.40
2019-05-25T05:00:08.244Z,17.27
2019-05-25T05:02:37.073Z,17.37
2019-05-25T05:05:06.555Z,18.07
2019-05-25T05:07:35.533Z,16.67
2019-05-25T05:10:05.255Z,16.77
2019-05-25T05:12:34.084Z,16.40
2019-05-25T05:15:02.964Z,18.10
2019-05-25T05:17:31.817Z,17.23
2019-05-25T05:20:00.615Z,18.10
2019-05-25T05:22:29.424Z,16.03
2019-05-25T05:24:58.316Z,17.53
2019-05-25T05:27:27.227Z,17.47
2019-05-25T05:29:56.090Z,15.67
2019-05-25T05:32:27.805Z,15.00
2019-05-25T05:34:55.574Z,14.67
2019-05-25T05:37:25.509Z,15.70
2019-05-25T05:39:56.020Z,14.70
2019-05-25T05:42:27.274Z,14.40
2019-05-25T05:44:57.021Z,14.00
2019-05-25T05:47:26.847Z,14.53
2019-05-25T05:49:55.979Z,13.27
2019-05-25T05:52:27.009Z,13.60
2019-05-25T05:54:58.811Z,13.63
2019-05-25T05:57:27.615Z,13.13
2019-05-25T05:59:56.440Z,12.70
2019-05-25T06:02:25.264Z,13.30
2019-05-25T06:04:54.236Z,12.97
2019-05-25T06:07:23.061Z,13.00
2019-05-25T06:09:51.944Z,13.17
2019-05-25T06:12:20.781Z,13.00
2019-05-25T06:14:49.609Z,14.47
2019-05-25T06:17:18.447Z,12.80
2019-05-25T06:19:47.331Z,13.97
2019-05-25T06:22:24.012Z,14.00
2019-05-25T06:24:56.022Z,13.70
2019-05-25T06:28:03.856Z,14.20
2019-05-25T06:30:32.806Z,13.53
2019-05-25T06:33:03.660Z,13.73
2019-05-25T06:35:32.475Z,14.57
2019-05-25T06:38:01.377Z,14.60
2019-05-25T06:40:30.176Z,13.30
2019-05-25T06:42:59.009Z,13.10
2019-05-25T06:45:27.818Z,13.50
2019-05-25T06:47:56.667Z,12.80
2019-05-25T06:50:25.612Z,12.20
2019-05-25T06:52:57.727Z,13.10
2019-05-25T06:55:24.966Z,11.60
2019-05-25T06:57:53.852Z,12.07
2019-05-25T07:00:23.317Z,11.30
2019-05-25T07:02:52.140Z,10.90
2019-05-25T07:05:21.024Z,10.30
2019-05-25T07:07:49.852Z,10.90
2019-05-25T07:10:18.829Z,10.43
2019-05-25T07:12:47.817Z,11.23
2019-05-25T07:15:16.867Z,10.70
2019-05-25T07:17:45.768Z,10.77
2019-05-25T07:20:14.915Z,10.67
2019-05-25T07:22:43.731Z,10.50
2019-05-25T07:25:13.000Z,10.00
2019-05-25T07:27:57.862Z,11.70
2019-05-25T07:30:12.908Z,9.83
2019-05-25T07:32:41.800Z,9.50
2019-05-25T07:35:12.150Z,9.50
2019-05-25T07:37:41.025Z,10.27
2019-05-25T07:40:10.315Z,9.70
2019-05-25T07:42:39.261Z,10.17
2019-05-25T07:45:09.636Z,9.40
2019-05-25T07:47:38.453Z,9.50
2019-05-25T07:50:08.309Z,8.10
2019-05-25T07:52:37.253Z,9.20
2019-05-25T07:55:06.842Z,8.53
2019-05-25T07:57:35.736Z,9.23
2019-05-25T08:00:05.088Z,8.20
2019-05-25T08:02:33.953Z,9.33
2019-05-25T08:05:05.107Z,9.20
2019-05-25T08:07:33.913Z,8.70
2019-05-25T08:10:02.849Z,8.10
2019-05-25T08:12:31.688Z,9.07
2019-05-25T08:15:00.548Z,8.47
2019-05-25T08:17:29.377Z,8.97
2019-05-25T08:19:58.321Z,8.40
2019-05-25T08:22:27.119Z,8.70
2019-05-25T08:24:55.936Z,9.50
2019-05-25T08:27:24.729Z,8.20
2019-05-25T08:29:53.575Z,8.33
2019-05-25T08:32:22.385Z,8.17
2019-05-25T08:34:51.256Z,8.40
2019-05-25T08:37:20.111Z,8.73
2019-05-25T08:39:48.929Z,8.30
2019-05-25T08:42:17.725Z,8.30
2019-05-25T08:44:46.604Z,8.23
2019-05-25T08:47:15.495Z,8.73
2019-05-25T08:49:44.345Z,7.70
2019-05-25T08:52:13.141Z,8.10
2019-05-25T08:54:41.956Z,7.80
2019-05-25T08:57:14.886Z,6.70
2019-05-25T08:59:41.436Z,7.53
2019-05-25T09:02:10.270Z,7.37
2019-05-25T09:04:39.140Z,7.50
2019-05-25T09:07:07.944Z,8.30
2019-05-25T09:09:36.773Z,7.40
2019-05-25T09:12:05.640Z,7.80
2019-05-25T09:14:34.604Z,8.00
2019-05-25T09:17:03.524Z,6.87
2019-05-25T09:19:32.563Z,8.60
2019-05-25T09:22:03.637Z,7.40
2019-05-25T09:24:31.961Z,7.43
2019-05-25T09:27:00.889Z,7.50
2019-05-25T09:29:29.703Z,7.53
2019-05-25T09:31:58.529Z,7.10
2019-05-25T09:34:27.421Z,6.60
2019-05-25T09:36:56.297Z,6.83
2019-05-25T09:39:25.234Z,6.67
2019-05-25T09:41:54.152Z,6.60
2019-05-25T09:44:22.976Z,6.57
2019-05-25T09:46:51.966Z,6.77
2019-05-25T09:49:20.815Z,7.20
2019-05-25T09:51:49.704Z,6.23
2019-05-25T09:54:18.590Z,6.67
2019-05-25T09:56:47.487Z,6.87
2019-05-25T09:59:20.124Z,7.50
2019-05-25T10:01:46.893Z,7.40
2019-05-25T10:04:15.694Z,5.97
2019-05-25T10:06:44.517Z,5.83
2019-05-25T10:09:13.393Z,6.70
2019-05-25T10:11:42.340Z,7.10
2019-05-25T10:14:11.213Z,7.50
2019-05-25T10:16:40.028Z,8.03
2019-05-25T10:19:08.822Z,5.93
2019-05-25T10:21:37.638Z,6.63
2019-05-25T10:24:06.457Z,5.37
2019-05-25T10:26:35.272Z,5.27
2019-05-25T10:29:04.168Z,5.77
2019-05-25T10:31:33.062Z,5.43
2019-05-25T10:34:01.929Z,5.73
2019-05-25T10:36:30.972Z,5.40
2019-05-25T10:38:59.767Z,5.43
2019-05-25T10:41:28.653Z,6.10
2019-05-25T10:43:57.448Z,5.73
2019-05-25T10:46:26.382Z,5.40
2019-05-25T10:48:55.223Z,5.77
2019-05-25T10:51:24.069Z,5.80
2019-05-25T10:53:52.873Z,5.83
2019-05-25T10:56:21.701Z,5.40
2019-05-25T10:58:50.834Z,5.10
2019-05-25T11:01:19.704Z,5.20
2019-05-25T11:03:48.661Z,5.40
2019-05-25T11:06:17.539Z,5.83
2019-05-25T11:08:46.396Z,5.47
2019-05-25T11:11:15.290Z,4.77
2019-05-25T11:13:44.083Z,5.10
2019-05-25T11:16:12.923Z,4.60
2019-05-25T11:18:41.797Z,5.00
2019-05-25T11:21:10.633Z,5.17
2019-05-25T11:23:39.457Z,5.10
2019-05-25T11:26:08.312Z,5.10
2019-05-25T11:28:37.112Z,4.60
2019-05-25T11:31:05.928Z,5.10
2019-05-25T11:33:36.439Z,4.77
2019-05-25T11:36:05.508Z,4.80
2019-05-25T11:38:34.484Z,4.00
2019-05-25T11:41:03.421Z,4.00
2019-05-25T11:43:32.305Z,4.00
2019-05-25T11:46:01.215Z,3.60
2019-05-25T11:48:30.027Z,3.93
2019-05-25T11:50:58.959Z,4.57
2019-05-25T11:53:27.903Z,3.67
2019-05-25T11:55:56.727Z,3.70
2019-05-25T11:58:25.531Z,4.30
2019-05-25T12:00:54.699Z,5.10
2019-05-25T12:03:23.685Z,3.87
2019-05-25T12:05:52.493Z,3.53
2019-05-25T12:08:21.300Z,3.80
2019-05-25T12:10:50.091Z,3.93
2019-05-25T12:13:18.920Z,4.03
2019-05-25T12:15:47.719Z,3.37
2019-05-25T12:18:16.537Z,3.90
2019-05-25T12:20:45.430Z,3.80
2019-05-25T12:23:14.438Z,3.20
2019-05-25T12:25:43.407Z,5.17
2019-05-25T12:28:12.243Z,3.53
2019-05-25T12:30:41.593Z,4.30
2019-05-25T12:33:10.505Z,3.83
2019-05-25T12:35:39.373Z,3.80
2019-05-25T12:38:08.279Z,3.70
2019-05-25T12:40:52.460Z,4.63
2019-05-25T12:43:07.812Z,3.97
2019-05-25T12:45:36.638Z,4.07
2019-05-25T12:48:05.543Z,4.17
2019-05-25T12:50:34.425Z,3.10
2019-05-25T12:53:03.436Z,3.80
2019-05-25T12:55:32.304Z,3.50
2019-05-25T12:58:01.119Z,4.27
2019-05-25T13:00:29.932Z,3.70
2019-05-25T13:02:59.029Z,3.23
2019-05-25T13:05:34.045Z,3.57
2019-05-25T13:07:58.451Z,3.40
2019-05-25T13:10:27.394Z,4.00
2019-05-25T13:12:57.813Z,3.73
2019-05-25T13:15:27.145Z,3.57
2019-05-25T13:17:55.973Z,3.83
2019-05-25T13:20:25.001Z,3.80
2019-05-25T13:22:54.067Z,3.97
2019-05-25T13:25:22.923Z,4.27
2019-05-25T13:27:51.919Z,4.10
2019-05-25T13:30:21.059Z,4.43
2019-05-25T13:32:49.887Z,5.20
2019-05-25T13:35:18.911Z,4.20
2019-05-25T13:37:47.831Z,3.60
2019-05-25T13:40:17.424Z,4.00
2019-05-25T13:42:46.426Z,3.93
2019-05-25T13:45:15.536Z,3.27
2019-05-25T13:47:44.380Z,4.10
2019-05-25T13:50:14.107Z,3.93
2019-05-25T13:52:42.920Z,3.40
2019-05-25T13:55:12.100Z,3.70
2019-05-25T13:57:40.985Z,3.53
2019-05-25T14:00:10.001Z,3.33
2019-05-25T14:02:38.824Z,3.77
2019-05-25T14:05:08.553Z,4.93
2019-05-25T14:07:37.509Z,3.80
2019-05-25T14:10:06.601Z,3.83
2019-05-25T14:12:35.499Z,3.90
2019-05-25T14:15:04.759Z,4.60
2019-05-25T14:17:33.625Z,4.57
2019-05-25T14:20:02.529Z,4.73
2019-05-25T14:22:31.333Z,3.93
2019-05-25T14:25:00.225Z,4.10
2019-05-25T14:27:29.049Z,3.73
2019-05-25T14:29:57.860Z,3.90
2019-05-25T14:32:26.800Z,4.43
2019-05-25T14:34:55.621Z,4.23
2019-05-25T14:37:24.505Z,4.20
2019-05-25T14:39:53.393Z,4.10
2019-05-25T14:42:22.184Z,5.00
2019-05-25T14:44:51.052Z,5.07
2019-05-25T14:47:19.892Z,4.70
2019-05-25T14:49:48.836Z,4.93
2019-05-25T14:52:17.730Z,4.87
2019-05-25T14:54:46.572Z,5.40
2019-05-25T14:57:15.464Z,5.10
2019-05-25T14:59:44.363Z,4.57
2019-05-25T15:02:13.307Z,4.50
2019-05-25T15:04:42.188Z,4.70
2019-05-25T15:07:11.036Z,4.27
2019-05-25T15:09:39.933Z,4.90
2019-05-25T15:12:08.797Z,5.07
2019-05-25T15:14:37.615Z,4.77
2019-05-25T15:17:06.499Z,5.07
2019-05-25T15:19:35.412Z,5.30
2019-05-25T15:22:04.453Z,5.20
2019-05-25T15:24:33.445Z,6.20
2019-05-25T15:27:02.315Z,4.80
2019-05-25T15:29:31.364Z,4.87
2019-05-25T15:32:00.241Z,5.43
2019-05-25T15:34:29.053Z,5.40
2019-05-25T15:36:57.885Z,4.57
2019-05-25T15:39:26.841Z,5.50
2019-05-25T15:41:57.775Z,6.03
2019-05-25T15:44:26.593Z,5.83
2019-05-25T15:46:55.577Z,5.70
2019-05-25T15:49:32.813Z,5.47
2019-05-25T15:51:55.301Z,4.30
2019-05-25T15:54:24.406Z,6.10
2019-05-25T15:56:53.314Z,5.53
2019-05-25T15:59:23.701Z,4.50
2019-05-25T16:01:54.555Z,5.10
2019-05-25T16:04:23.447Z,5.73
2019-05-25T16:06:52.510Z,5.50
2019-05-25T16:09:21.408Z,5.43
2019-05-25T16:11:50.305Z,5.57
2019-05-25T16:14:19.119Z,4.80
2019-05-25T16:16:47.938Z,5.57
2019-05-25T16:19:16.846Z,5.50
2019-05-25T16:21:45.727Z,4.97
2019-05-25T16:24:14.532Z,5.33
2019-05-25T16:26:46.426Z,5.33
2019-05-25T16:29:14.077Z,5.83
2019-05-25T16:31:42.872Z,5.20
2019-05-25T16:34:11.692Z,5.10
2019-05-25T16:36:40.498Z,5.23
2019-05-25T16:39:09.455Z,6.10
2019-05-25T16:41:38.321Z,5.10
2019-05-25T16:44:07.329Z,5.47
2019-05-25T16:46:36.328Z,5.60
2019-05-25T16:49:05.412Z,5.43
2019-05-25T16:51:34.271Z,6.50
2019-05-25T16:54:03.103Z,5.50
2019-05-25T16:56:32.010Z,6.00
2019-05-25T16:59:00.804Z,4.87
2019-05-25T17:01:46.881Z,5.70
2019-05-25T17:04:00.375Z,5.60
2019-05-25T17:06:29.328Z,5.37
2019-05-25T17:08:58.168Z,5.37
2019-05-25T17:11:27.050Z,5.03
2019-05-25T17:13:55.897Z,5.67
2019-05-25T17:16:24.820Z,5.53
2019-05-25T17:18:53.707Z,4.93
2019-05-25T17:21:22.633Z,5.20
2019-05-25T17:23:51.484Z,5.20
2019-05-25T17:26:20.373Z,5.60
2019-05-25T17:28:49.181Z,5.30
2019-05-25T17:31:18.083Z,5.47
2019-05-25T17:33:46.975Z,5.77
2019-05-25T17:36:15.878Z,5.30
2019-05-25T17:38:44.688Z,5.57
2019-05-25T17:41:13.577Z,5.03
2019-05-25T17:43:42.367Z,4.67
2019-05-25T17:46:11.336Z,5.33
2019-05-25T17:48:40.150Z,4.70
2019-05-25T17:51:09.110Z,4.20
2019-05-25T17:53:37.980Z,4.47
2019-05-25T17:56:06.964Z,4.80
2019-05-25T17:58:35.788Z,4.37
2019-05-25T18:01:04.948Z,4.10
2019-05-25T18:03:37.900Z,4.00
2019-05-25T18:06:06.758Z,4.07
2019-05-25T18:08:35.562Z,4.63
2019-05-25T18:11:04.528Z,4.20
2019-05-25T18:13:33.425Z,4.60
2019-05-25T18:16:02.252Z,4.60
2019-05-25T18:18:31.091Z,4.20
2019-05-25T18:21:00.016Z,4.47
2019-05-25T18:23:28.813Z,4.03
2019-05-25T18:25:57.724Z,3.87
2019-05-25T18:28:26.597Z,4.03
2019-05-25T18:30:55.416Z,4.40
2019-05-25T18:33:25.260Z,3.80
2019-05-25T18:35:54.082Z,3.67
2019-05-25T18:38:22.956Z,4.33
2019-05-25T18:40:51.797Z,3.90
2019-05-25T18:43:20.814Z,3.53
2019-05-25T18:45:49.724Z,3.47
2019-05-25T18:48:18.693Z,3.73
2019-05-25T18:50:47.662Z,4.03
2019-05-25T18:53:16.513Z,3.70
2019-05-25T18:55:46.121Z,3.60
2019-05-25T18:58:15.045Z,3.43
2019-05-25T19:00:43.920Z,3.60
2019-05-25T19:03:12.743Z,3.50
2019-05-25T19:05:41.687Z,3.77
2019-05-25T19:08:10.497Z,3.83
2019-05-25T19:10:39.342Z,3.50
2019-05-25T19:13:08.213Z,3.50
2019-05-25T19:15:40.307Z,3.53
2019-05-25T19:18:09.188Z,3.57
2019-05-25T19:20:38.015Z,3.60
2019-05-25T19:23:06.903Z,3.03
2019-05-25T19:25:35.932Z,3.33
2019-05-25T19:28:04.862Z,3.47
2019-05-25T19:30:33.767Z,3.17
2019-05-25T19:33:02.692Z,3.60
2019-05-25T19:35:31.569Z,3.50
2019-05-25T19:38:00.391Z,3.47
2019-05-25T19:40:29.270Z,3.50
2019-05-25T19:42:58.125Z,3.40
2019-05-25T19:45:26.934Z,5.67
2019-05-25T19:47:55.769Z,5.67
2019-05-25T19:50:24.751Z,3.73
2019-05-25T19:52:53.566Z,4.20
2019-05-25T19:55:22.359Z,3.23
2019-05-25T19:57:51.181Z,3.50
2019-05-25T20:00:21.694Z,3.13
2019-05-25T20:02:53.626Z,3.37
2019-05-25T20:05:22.509Z,3.60
2019-05-25T20:07:51.493Z,2.93
2019-05-25T20:10:20.736Z,3.20
2019-05-25T20:12:49.563Z,3.77
2019-05-25T20:15:18.584Z,2.73
2019-05-25T20:17:47.392Z,2.77
2019-05-25T20:20:16.523Z,2.53
2019-05-25T20:22:45.501Z,2.43
2019-05-25T20:25:14.667Z,3.33
2019-05-25T20:27:43.492Z,3.47
2019-05-25T20:30:12.519Z,2.60
2019-05-25T20:32:41.341Z,2.80
2019-05-25T20:35:10.536Z,3.30
2019-05-25T20:37:39.353Z,3.10
2019-05-25T20:40:10.200Z,3.67
2019-05-25T20:42:39.247Z,4.77
2019-05-25T20:45:08.567Z,3.40
2019-05-25T20:47:37.456Z,3.40
2019-05-25T20:50:07.527Z,2.80
2019-05-25T20:52:36.403Z,2.97
2019-05-25T20:55:05.767Z,3.50
2019-05-25T20:57:34.654Z,3.43
2019-05-25T21:00:04.197Z,2.73
2019-05-25T21:02:33.136Z,2.97
2019-05-25T21:05:01.989Z,3.00
2019-05-25T21:07:30.796Z,3.07
2019-05-25T21:09:59.596Z,2.50
2019-05-25T21:12:28.412Z,2.93
2019-05-25T21:14:57.212Z,3.30
2019-05-25T21:17:26.025Z,3.50
2019-05-25T21:19:54.829Z,3.87
2019-05-25T21:22:23.696Z,3.30
2019-05-25T21:24:52.600Z,3.00
2019-05-25T21:27:21.437Z,3.27
2019-05-25T21:29:50.264Z,3.23
2019-05-25T21:32:19.112Z,3.00
2019-05-25T21:34:48.005Z,3.30
2019-05-25T21:37:16.810Z,2.93
2019-05-25T21:39:45.758Z,3.50
2019-05-25T21:42:14.644Z,3.60
2019-05-25T21:44:43.461Z,3.77
2019-05-25T21:47:12.351Z,3.63
2019-05-25T21:49:41.240Z,3.40
2019-05-25T21:52:10.109Z,2.47
2019-05-25T21:54:38.915Z,3.13
2019-05-25T21:57:07.712Z,4.33
2019-05-25T21:59:36.524Z,3.53
2019-05-25T22:02:05.522Z,4.03
2019-05-25T22:04:34.480Z,2.67
2019-05-25T22:07:03.500Z,3.80
2019-05-25T22:09:32.307Z,4.43
2019-05-25T22:12:01.289Z,4.40
2019-05-25T22:14:30.095Z,4.63
2019-05-25T22:16:58.902Z,4.30
2019-05-25T22:19:27.729Z,4.43
2019-05-25T22:21:56.539Z,4.70
2019-05-25T22:24:25.335Z,4.20
2019-05-25T22:26:54.145Z,4.73
2019-05-25T22:29:23.036Z,4.27
2019-05-25T22:31:51.844Z,4.00
2019-05-25T22:34:20.649Z,4.03
2019-05-25T22:36:49.512Z,3.37
2019-05-25T22:39:18.387Z,4.30
2019-05-25T22:41:47.266Z,4.17
2019-05-25T22:44:16.083Z,4.03
2019-05-25T22:46:44.885Z,3.80
2019-05-25T22:49:13.777Z,3.67
2019-05-25T22:51:42.573Z,3.77
2019-05-25T22:54:11.387Z,3.60
2019-05-25T22:56:40.196Z,4.00
2019-05-25T22:59:09.015Z,4.60
2019-05-25T23:01:37.804Z,4.70
2019-05-25T23:04:06.607Z,3.50
2019-05-25T23:06:35.406Z,3.47
2019-05-25T23:09:05.781Z,3.83
2019-05-25T23:11:34.658Z,4.50
2019-05-25T23:14:03.730Z,4.00
2019-05-25T23:16:33.102Z,3.87
2019-05-25T23:19:01.994Z,3.67
2019-05-25T23:21:30.866Z,4.93
2019-05-25T23:23:59.712Z,4.80
2019-05-25T23:26:28.505Z,4.27
2019-05-25T23:28:57.325Z,4.03
2019-05-25T23:31:26.132Z,4.13
2019-05-25T23:33:54.936Z,3.53
2019-05-25T23:36:23.796Z,3.37
2019-05-25T23:38:52.604Z,3.90
2019-05-25T23:41:21.417Z,3.87
2019-05-25T23:43:50.331Z,3.77
2019-05-25T23:46:19.156Z,3.93
2019-05-25T23:48:47.939Z,3.03
2019-05-25T23:51:16.764Z,3.10
2019-05-25T23:53:45.560Z,2.90
2019-05-25T23:56:14.360Z,2.90
2019-05-25T23:58:43.235Z,2.90
